sensor_id;sensor_type;location;lat;lon;timestamp;temperature;humidity
3001;DHT22;1510;51.072;6.678;2022-12-07T00:00:17;4.60;99.90
3001;DHT22;1510;51.072;6.678;2022-12-07T00:02:44;4.50;99.90
3001;DHT22;1510;51.072;6.678;2022-12-07T00:05:11;4.50;99.90
3001;DHT22;1510;51.072;6.678;2022-12-07T00:07:39;4.50;99.90
3001;DHT22;1510;51.072;6.678;2022-12-07T00:10:06;4.60;99.90
3001;DHT22;1510;51.072;6.678;2022-12-07T00:12:33;4.60;99.90
3001;DHT22;1510;51.072;6.678;2022-12-07T00:15:00;4.70;99.90
3001;DHT22;1510;51.072;6.678;2022-12-07T00:17:26;4.70;99.90
3001;DHT22;1510;51.072;6.678;2022-12-07T00:19:53;4.70;99.90
3001;DHT22;1510;51.072;6.678;2022-12-07T00:22:20;4.70;99.90
3001;DHT22;1510;51.072;6.678;2022-12-07T00:24:48;4.70;99.90
3001;DHT22;1510;51.072;6.678;2022-12-07T00:27:15;4.60;99.90
3001;DHT22;1510;51.072;6.678;2022-12-07T00:29:41;4.60;99.90
3001;DHT22;1510;51.072;6.678;2022-12-07T00:32:08;4.60;99.90
3001;DHT22;1510;51.072;6.678;2022-12-07T00:34:35;4.60;99.90
3001;DHT22;1510;51.072;6.678;2022-12-07T00:37:01;4.60;99.90
3001;DHT22;1510;51.072;6.678;2022-12-07T00:39:28;4.50;99.90
3001;DHT22;1510;51.072;6.678;2022-12-07T00:41:56;4.50;99.90
3001;DHT22;1510;51.072;6.678;2022-12-07T00:44:23;4.50;99.90
3001;DHT22;1510;51.072;6.678;2022-12-07T00:46:50;4.60;99.90
3001;DHT22;1510;51.072;6.678;2022-12-07T00:49:16;4.70;99.90
3001;DHT22;1510;51.072;6.678;2022-12-07T00:51:43;4.70;99.90
3001;DHT22;1510;51.072;6.678;2022-12-07T00:54:10;4.80;99.90
3001;DHT22;1510;51.072;6.678;2022-12-07T00:56:37;4.70;99.90
3001;DHT22;1510;51.072;6.678;2022-12-07T00:59:06;4.90;99.90
3001;DHT22;1510;51.072;6.678;2022-12-07T01:01:35;4.80;99.90
3001;DHT22;1510;51.072;6.678;2022-12-07T01:04:02;4.80;99.90
3001;DHT22;1510;51.072;6.678;2022-12-07T01:06:29;4.90;99.90
3001;DHT22;1510;51.072;6.678;2022-12-07T01:08:56;4.90;99.90
3001;DHT22;1510;51.072;6.678;2022-12-07T01:11:25;4.90;99.90
3001;DHT22;1510;51.072;6.678;2022-12-07T01:13:53;4.90;99.90
3001;DHT22;1510;51.072;6.678;2022-12-07T01:16:24;5.00;99.90
3001;DHT22;1510;51.072;6.678;2022-12-07T01:18:53;4.90;99.90
3001;DHT22;1510;51.072;6.678;2022-12-07T01:21:22;5.00;99.90
3001;DHT22;1510;51.072;6.678;2022-12-07T01:23:49;4.90;99.90
3001;DHT22;1510;51.072;6.678;2022-12-07T01:26:18;4.90;99.90
3001;DHT22;1510;51.072;6.678;2022-12-07T01:28:46;5.00;99.90
3001;DHT22;1510;51.072;6.678;2022-12-07T01:31:15;5.00;99.90
3001;DHT22;1510;51.072;6.678;2022-12-07T01:33:45;4.90;99.90
3001;DHT22;1510;51.072;6.678;2022-12-07T01:36:14;4.90;99.90
3001;DHT22;1510;51.072;6.678;2022-12-07T01:38:41;4.90;99.90
3001;DHT22;1510;51.072;6.678;2022-12-07T01:41:08;4.90;99.90
3001;DHT22;1510;51.072;6.678;2022-12-07T01:43:36;4.80;99.90
3001;DHT22;1510;51.072;6.678;2022-12-07T01:46:03;4.80;99.90
3001;DHT22;1510;51.072;6.678;2022-12-07T01:48:33;4.90;99.90
3001;DHT22;1510;51.072;6.678;2022-12-07T01:51:05;4.80;99.90
3001;DHT22;1510;51.072;6.678;2022-12-07T01:53:36;4.80;99.90
3001;DHT22;1510;51.072;6.678;2022-12-07T01:56:05;4.90;99.90
3001;DHT22;1510;51.072;6.678;2022-12-07T01:58:34;4.90;99.90
3001;DHT22;1510;51.072;6.678;2022-12-07T02:01:01;4.90;99.90
3001;DHT22;1510;51.072;6.678;2022-12-07T02:03:31;4.80;99.90
3001;DHT22;1510;51.072;6.678;2022-12-07T02:05:59;4.90;99.90
3001;DHT22;1510;51.072;6.678;2022-12-07T02:08:27;4.80;99.90
3001;DHT22;1510;51.072;6.678;2022-12-07T02:10:54;4.80;99.90
3001;DHT22;1510;51.072;6.678;2022-12-07T02:13:23;4.80;99.90
3001;DHT22;1510;51.072;6.678;2022-12-07T02:16:05;4.90;99.90
3001;DHT22;1510;51.072;6.678;2022-12-07T02:18:49;4.80;99.90
3001;DHT22;1510;51.072;6.678;2022-12-07T02:21:23;4.90;99.90
3001;DHT22;1510;51.072;6.678;2022-12-07T02:24:12;4.80;99.90
3001;DHT22;1510;51.072;6.678;2022-12-07T02:27:08;4.80;99.90
3001;DHT22;1510;51.072;6.678;2022-12-07T02:29:44;4.70;99.90
3001;DHT22;1510;51.072;6.678;2022-12-07T02:32:16;4.70;99.90
3001;DHT22;1510;51.072;6.678;2022-12-07T02:34:49;4.60;99.90
3001;DHT22;1510;51.072;6.678;2022-12-07T02:37:29;4.80;99.90
3001;DHT22;1510;51.072;6.678;2022-12-07T02:40:04;4.70;99.90
3001;DHT22;1510;51.072;6.678;2022-12-07T02:42:37;4.70;99.90
3001;DHT22;1510;51.072;6.678;2022-12-07T02:45:10;4.70;99.90
3001;DHT22;1510;51.072;6.678;2022-12-07T02:47:39;4.70;99.90
3001;DHT22;1510;51.072;6.678;2022-12-07T02:50:07;4.80;99.90
3001;DHT22;1510;51.072;6.678;2022-12-07T02:52:34;4.80;99.90
3001;DHT22;1510;51.072;6.678;2022-12-07T02:55:02;4.70;99.90
3001;DHT22;1510;51.072;6.678;2022-12-07T02:57:46;4.70;99.90
3001;DHT22;1510;51.072;6.678;2022-12-07T03:00:20;4.70;99.90
3001;DHT22;1510;51.072;6.678;2022-12-07T03:02:53;4.70;99.90
3001;DHT22;1510;51.072;6.678;2022-12-07T03:05:32;4.70;99.90
3001;DHT22;1510;51.072;6.678;2022-12-07T03:08:07;4.70;99.90
3001;DHT22;1510;51.072;6.678;2022-12-07T03:10:40;4.70;99.90
3001;DHT22;1510;51.072;6.678;2022-12-07T03:13:11;4.60;99.90
3001;DHT22;1510;51.072;6.678;2022-12-07T03:15:45;4.80;99.90
3001;DHT22;1510;51.072;6.678;2022-12-07T03:18:17;4.70;99.90
3001;DHT22;1510;51.072;6.678;2022-12-07T03:20:47;4.80;99.90
3001;DHT22;1510;51.072;6.678;2022-12-07T03:23:16;4.70;99.90
3001;DHT22;1510;51.072;6.678;2022-12-07T03:25:47;4.70;99.90
3001;DHT22;1510;51.072;6.678;2022-12-07T03:28:18;4.70;99.90
3001;DHT22;1510;51.072;6.678;2022-12-07T03:30:52;4.70;99.90
3001;DHT22;1510;51.072;6.678;2022-12-07T03:33:24;4.80;99.90
3001;DHT22;1510;51.072;6.678;2022-12-07T03:35:57;4.60;99.90
3001;DHT22;1510;51.072;6.678;2022-12-07T03:38:29;4.70;99.90
3001;DHT22;1510;51.072;6.678;2022-12-07T03:41:00;4.60;99.90
3001;DHT22;1510;51.072;6.678;2022-12-07T03:43:29;4.60;99.90
3001;DHT22;1510;51.072;6.678;2022-12-07T03:46:01;4.60;99.90
3001;DHT22;1510;51.072;6.678;2022-12-07T03:48:35;4.70;99.90
3001;DHT22;1510;51.072;6.678;2022-12-07T03:51:11;4.60;99.90
3001;DHT22;1510;51.072;6.678;2022-12-07T03:53:43;4.60;99.90
3001;DHT22;1510;51.072;6.678;2022-12-07T03:56:12;4.50;99.90
3001;DHT22;1510;51.072;6.678;2022-12-07T03:58:40;4.50;99.90
3001;DHT22;1510;51.072;6.678;2022-12-07T04:01:08;4.60;99.90
3001;DHT22;1510;51.072;6.678;2022-12-07T04:03:35;4.50;99.90
3001;DHT22;1510;51.072;6.678;2022-12-07T04:06:02;4.50;99.90
3001;DHT22;1510;51.072;6.678;2022-12-07T04:08:29;4.60;99.90
3001;DHT22;1510;51.072;6.678;2022-12-07T04:10:56;4.60;99.90
3001;DHT22;1510;51.072;6.678;2022-12-07T04:13:22;4.60;99.90
3001;DHT22;1510;51.072;6.678;2022-12-07T04:15:49;4.50;99.90
3001;DHT22;1510;51.072;6.678;2022-12-07T04:18:17;4.40;99.90
3001;DHT22;1510;51.072;6.678;2022-12-07T04:20:45;4.50;99.90
3001;DHT22;1510;51.072;6.678;2022-12-07T04:23:12;4.40;99.90
3001;DHT22;1510;51.072;6.678;2022-12-07T04:25:39;4.20;99.90
3001;DHT22;1510;51.072;6.678;2022-12-07T04:28:06;4.20;99.90
3001;DHT22;1510;51.072;6.678;2022-12-07T04:30:33;4.20;99.90
3001;DHT22;1510;51.072;6.678;2022-12-07T04:32:59;4.20;99.90
3001;DHT22;1510;51.072;6.678;2022-12-07T04:35:27;4.20;99.90
3001;DHT22;1510;51.072;6.678;2022-12-07T04:37:54;4.20;99.90
3001;DHT22;1510;51.072;6.678;2022-12-07T04:40:21;4.10;99.90
3001;DHT22;1510;51.072;6.678;2022-12-07T04:42:47;4.20;99.90
3001;DHT22;1510;51.072;6.678;2022-12-07T04:45:14;4.20;99.90
3001;DHT22;1510;51.072;6.678;2022-12-07T04:47:41;4.30;99.90
3001;DHT22;1510;51.072;6.678;2022-12-07T04:50:09;4.20;99.90
3001;DHT22;1510;51.072;6.678;2022-12-07T04:52:37;4.30;99.90
3001;DHT22;1510;51.072;6.678;2022-12-07T04:55:05;4.30;99.90
3001;DHT22;1510;51.072;6.678;2022-12-07T04:57:31;4.30;99.90
3001;DHT22;1510;51.072;6.678;2022-12-07T04:59:58;4.40;99.90
3001;DHT22;1510;51.072;6.678;2022-12-07T05:02:25;4.40;99.90
3001;DHT22;1510;51.072;6.678;2022-12-07T05:04:51;4.40;99.90
3001;DHT22;1510;51.072;6.678;2022-12-07T05:07:18;4.30;99.90
3001;DHT22;1510;51.072;6.678;2022-12-07T05:09:46;4.40;99.90
3001;DHT22;1510;51.072;6.678;2022-12-07T05:12:13;4.30;99.90
3001;DHT22;1510;51.072;6.678;2022-12-07T05:14:40;4.20;99.90
3001;DHT22;1510;51.072;6.678;2022-12-07T05:17:06;4.30;99.90
3001;DHT22;1510;51.072;6.678;2022-12-07T05:19:33;4.30;99.90
3001;DHT22;1510;51.072;6.678;2022-12-07T05:22:00;4.20;99.90
3001;DHT22;1510;51.072;6.678;2022-12-07T05:24:26;4.30;99.90
3001;DHT22;1510;51.072;6.678;2022-12-07T05:26:55;4.30;99.90
3001;DHT22;1510;51.072;6.678;2022-12-07T05:29:24;4.20;99.90
3001;DHT22;1510;51.072;6.678;2022-12-07T05:31:51;4.30;99.90
3001;DHT22;1510;51.072;6.678;2022-12-07T05:34:17;4.20;99.90
3001;DHT22;1510;51.072;6.678;2022-12-07T05:36:44;4.20;99.90
3001;DHT22;1510;51.072;6.678;2022-12-07T05:39:11;4.10;99.90
3001;DHT22;1510;51.072;6.678;2022-12-07T05:41:38;4.10;99.90
3001;DHT22;1510;51.072;6.678;2022-12-07T05:44:23;4.10;99.90
3001;DHT22;1510;51.072;6.678;2022-12-07T05:46:50;4.10;99.90
3001;DHT22;1510;51.072;6.678;2022-12-07T05:49:17;4.00;99.90
3001;DHT22;1510;51.072;6.678;2022-12-07T05:51:44;4.10;99.90
3001;DHT22;1510;51.072;6.678;2022-12-07T05:54:10;4.00;99.90
3001;DHT22;1510;51.072;6.678;2022-12-07T05:56:37;4.00;99.90
3001;DHT22;1510;51.072;6.678;2022-12-07T05:59:10;4.00;99.90
3001;DHT22;1510;51.072;6.678;2022-12-07T06:01:50;4.10;99.90
3001;DHT22;1510;51.072;6.678;2022-12-07T06:04:19;4.10;99.90
3001;DHT22;1510;51.072;6.678;2022-12-07T06:06:47;4.10;99.90
3001;DHT22;1510;51.072;6.678;2022-12-07T06:09:14;4.10;99.90
3001;DHT22;1510;51.072;6.678;2022-12-07T06:11:41;4.30;99.90
3001;DHT22;1510;51.072;6.678;2022-12-07T06:14:27;4.20;99.90
3001;DHT22;1510;51.072;6.678;2022-12-07T06:16:56;4.20;99.90
3001;DHT22;1510;51.072;6.678;2022-12-07T06:19:22;4.20;99.90
3001;DHT22;1510;51.072;6.678;2022-12-07T06:21:49;4.20;99.90
3001;DHT22;1510;51.072;6.678;2022-12-07T06:24:17;4.40;99.90
3001;DHT22;1510;51.072;6.678;2022-12-07T06:26:44;4.20;99.90
3001;DHT22;1510;51.072;6.678;2022-12-07T06:29:11;4.30;99.90
3001;DHT22;1510;51.072;6.678;2022-12-07T06:31:39;4.40;99.90
3001;DHT22;1510;51.072;6.678;2022-12-07T06:34:10;4.40;99.90
3001;DHT22;1510;51.072;6.678;2022-12-07T06:36:37;4.40;99.90
3001;DHT22;1510;51.072;6.678;2022-12-07T06:39:04;4.40;99.90
3001;DHT22;1510;51.072;6.678;2022-12-07T06:41:31;4.40;99.90
3001;DHT22;1510;51.072;6.678;2022-12-07T06:43:58;4.40;99.90
3001;DHT22;1510;51.072;6.678;2022-12-07T06:46:25;4.30;99.90
3001;DHT22;1510;51.072;6.678;2022-12-07T06:48:52;4.30;99.90
3001;DHT22;1510;51.072;6.678;2022-12-07T06:51:20;4.30;99.90
3001;DHT22;1510;51.072;6.678;2022-12-07T06:53:47;4.20;99.90
3001;DHT22;1510;51.072;6.678;2022-12-07T06:56:14;4.20;99.90
3001;DHT22;1510;51.072;6.678;2022-12-07T06:58:41;4.10;99.90
3001;DHT22;1510;51.072;6.678;2022-12-07T07:01:09;4.20;99.90
3001;DHT22;1510;51.072;6.678;2022-12-07T07:03:36;4.10;99.90
3001;DHT22;1510;51.072;6.678;2022-12-07T07:06:04;4.10;99.90
3001;DHT22;1510;51.072;6.678;2022-12-07T07:08:32;4.10;99.90
3001;DHT22;1510;51.072;6.678;2022-12-07T07:10:59;4.10;99.90
3001;DHT22;1510;51.072;6.678;2022-12-07T07:13:26;3.90;99.90
3001;DHT22;1510;51.072;6.678;2022-12-07T07:15:54;3.90;99.90
3001;DHT22;1510;51.072;6.678;2022-12-07T07:18:21;3.80;99.90
3001;DHT22;1510;51.072;6.678;2022-12-07T07:20:54;3.80;99.90
3001;DHT22;1510;51.072;6.678;2022-12-07T07:23:24;3.90;99.90
3001;DHT22;1510;51.072;6.678;2022-12-07T07:25:52;3.80;99.90
3001;DHT22;1510;51.072;6.678;2022-12-07T07:28:19;3.60;99.90
3001;DHT22;1510;51.072;6.678;2022-12-07T07:30:45;3.60;99.90
3001;DHT22;1510;51.072;6.678;2022-12-07T07:33:12;3.50;99.90
3001;DHT22;1510;51.072;6.678;2022-12-07T07:35:39;3.50;99.90
3001;DHT22;1510;51.072;6.678;2022-12-07T07:38:07;3.50;99.90
3001;DHT22;1510;51.072;6.678;2022-12-07T07:40:34;3.30;99.90
3001;DHT22;1510;51.072;6.678;2022-12-07T07:43:02;3.40;99.90
3001;DHT22;1510;51.072;6.678;2022-12-07T07:45:29;3.50;99.90
3001;DHT22;1510;51.072;6.678;2022-12-07T07:47:56;3.70;99.90
3001;DHT22;1510;51.072;6.678;2022-12-07T07:50:23;3.80;99.90
3001;DHT22;1510;51.072;6.678;2022-12-07T07:52:50;3.90;99.90
3001;DHT22;1510;51.072;6.678;2022-12-07T07:55:17;4.00;99.90
3001;DHT22;1510;51.072;6.678;2022-12-07T07:57:44;4.10;99.90
3001;DHT22;1510;51.072;6.678;2022-12-07T08:00:15;4.10;99.90
3001;DHT22;1510;51.072;6.678;2022-12-07T08:02:44;4.10;99.90
3001;DHT22;1510;51.072;6.678;2022-12-07T08:05:12;4.20;99.90
3001;DHT22;1510;51.072;6.678;2022-12-07T08:07:39;4.30;99.90
3001;DHT22;1510;51.072;6.678;2022-12-07T08:10:08;4.30;99.90
3001;DHT22;1510;51.072;6.678;2022-12-07T08:12:39;4.30;99.90
3001;DHT22;1510;51.072;6.678;2022-12-07T08:15:29;4.30;99.90
3001;DHT22;1510;51.072;6.678;2022-12-07T08:17:56;4.30;99.90
3001;DHT22;1510;51.072;6.678;2022-12-07T08:20:23;4.30;99.90
3001;DHT22;1510;51.072;6.678;2022-12-07T08:22:52;4.40;99.90
3001;DHT22;1510;51.072;6.678;2022-12-07T08:25:19;4.40;99.90
3001;DHT22;1510;51.072;6.678;2022-12-07T08:27:50;4.40;99.90
3001;DHT22;1510;51.072;6.678;2022-12-07T08:30:18;4.30;99.90
3001;DHT22;1510;51.072;6.678;2022-12-07T08:32:49;4.30;99.90
3001;DHT22;1510;51.072;6.678;2022-12-07T08:35:16;4.30;99.90
3001;DHT22;1510;51.072;6.678;2022-12-07T08:37:43;4.30;99.90
3001;DHT22;1510;51.072;6.678;2022-12-07T08:40:13;4.50;99.90
3001;DHT22;1510;51.072;6.678;2022-12-07T08:42:49;4.60;99.90
3001;DHT22;1510;51.072;6.678;2022-12-07T08:45:17;4.80;99.90
3001;DHT22;1510;51.072;6.678;2022-12-07T08:47:47;4.90;99.90
3001;DHT22;1510;51.072;6.678;2022-12-07T08:50:19;5.00;99.90
3001;DHT22;1510;51.072;6.678;2022-12-07T08:52:53;4.90;99.90
3001;DHT22;1510;51.072;6.678;2022-12-07T08:55:20;5.00;99.90
3001;DHT22;1510;51.072;6.678;2022-12-07T08:57:50;4.90;99.90
3001;DHT22;1510;51.072;6.678;2022-12-07T09:00:28;5.10;99.90
3001;DHT22;1510;51.072;6.678;2022-12-07T09:02:55;5.20;99.90
3001;DHT22;1510;51.072;6.678;2022-12-07T09:05:23;5.10;99.90
3001;DHT22;1510;51.072;6.678;2022-12-07T09:07:54;5.00;99.90
3001;DHT22;1510;51.072;6.678;2022-12-07T09:10:26;5.10;99.90
3001;DHT22;1510;51.072;6.678;2022-12-07T09:12:53;5.20;99.90
3001;DHT22;1510;51.072;6.678;2022-12-07T09:15:28;5.20;99.90
3001;DHT22;1510;51.072;6.678;2022-12-07T09:17:59;5.10;99.90
3001;DHT22;1510;51.072;6.678;2022-12-07T09:20:34;5.00;99.90
3001;DHT22;1510;51.072;6.678;2022-12-07T09:23:02;5.00;99.90
3001;DHT22;1510;51.072;6.678;2022-12-07T09:25:32;5.10;99.90
3001;DHT22;1510;51.072;6.678;2022-12-07T09:27:59;5.10;99.90
3001;DHT22;1510;51.072;6.678;2022-12-07T09:30:45;5.30;99.90
3001;DHT22;1510;51.072;6.678;2022-12-07T09:33:19;5.60;99.90
3001;DHT22;1510;51.072;6.678;2022-12-07T09:35:51;5.50;99.90
3001;DHT22;1510;51.072;6.678;2022-12-07T09:38:19;5.40;99.90
3001;DHT22;1510;51.072;6.678;2022-12-07T09:40:49;5.70;99.90
3001;DHT22;1510;51.072;6.678;2022-12-07T09:43:25;5.80;99.90
3001;DHT22;1510;51.072;6.678;2022-12-07T09:46:00;5.70;99.90
3001;DHT22;1510;51.072;6.678;2022-12-07T09:48:31;5.70;99.90
3001;DHT22;1510;51.072;6.678;2022-12-07T09:51:00;5.70;99.90
3001;DHT22;1510;51.072;6.678;2022-12-07T09:53:31;5.60;99.90
3001;DHT22;1510;51.072;6.678;2022-12-07T09:55:59;5.60;99.90
3001;DHT22;1510;51.072;6.678;2022-12-07T09:58:32;5.60;99.90
3001;DHT22;1510;51.072;6.678;2022-12-07T10:01:11;5.60;99.90
3001;DHT22;1510;51.072;6.678;2022-12-07T10:03:45;5.50;99.90
3001;DHT22;1510;51.072;6.678;2022-12-07T10:06:26;5.60;99.90
3001;DHT22;1510;51.072;6.678;2022-12-07T10:08:59;5.60;99.90
3001;DHT22;1510;51.072;6.678;2022-12-07T10:11:36;5.70;99.90
3001;DHT22;1510;51.072;6.678;2022-12-07T10:14:22;5.70;99.90
3001;DHT22;1510;51.072;6.678;2022-12-07T10:16:50;5.80;99.90
3001;DHT22;1510;51.072;6.678;2022-12-07T10:19:24;6.00;99.90
3001;DHT22;1510;51.072;6.678;2022-12-07T10:22:07;6.40;99.90
3001;DHT22;1510;51.072;6.678;2022-12-07T10:24:35;6.60;99.90
3001;DHT22;1510;51.072;6.678;2022-12-07T10:27:19;6.70;99.90
3001;DHT22;1510;51.072;6.678;2022-12-07T10:29:50;6.60;99.90
3001;DHT22;1510;51.072;6.678;2022-12-07T10:32:31;6.60;99.90
3001;DHT22;1510;51.072;6.678;2022-12-07T10:35:19;6.50;99.90
3001;DHT22;1510;51.072;6.678;2022-12-07T10:37:55;6.50;99.90
3001;DHT22;1510;51.072;6.678;2022-12-07T10:40:30;6.40;99.90
3001;DHT22;1510;51.072;6.678;2022-12-07T10:43:04;6.40;99.90
3001;DHT22;1510;51.072;6.678;2022-12-07T10:46:03;6.50;99.90
3001;DHT22;1510;51.072;6.678;2022-12-07T10:48:45;6.50;99.90
3001;DHT22;1510;51.072;6.678;2022-12-07T10:51:24;6.60;99.90
3001;DHT22;1510;51.072;6.678;2022-12-07T10:54:02;6.60;99.90
3001;DHT22;1510;51.072;6.678;2022-12-07T10:56:51;6.60;99.90
3001;DHT22;1510;51.072;6.678;2022-12-07T10:59:50;6.50;99.90
3001;DHT22;1510;51.072;6.678;2022-12-07T11:02:25;6.50;99.90
3001;DHT22;1510;51.072;6.678;2022-12-07T11:05:05;6.70;99.90
3001;DHT22;1510;51.072;6.678;2022-12-07T11:07:45;6.60;99.90
3001;DHT22;1510;51.072;6.678;2022-12-07T11:10:18;6.60;99.90
3001;DHT22;1510;51.072;6.678;2022-12-07T11:13:10;6.40;99.90
3001;DHT22;1510;51.072;6.678;2022-12-07T11:15:53;6.20;99.90
3001;DHT22;1510;51.072;6.678;2022-12-07T11:18:26;6.10;99.90
3001;DHT22;1510;51.072;6.678;2022-12-07T11:20:58;5.80;99.90
3001;DHT22;1510;51.072;6.678;2022-12-07T11:23:45;5.90;99.90
3001;DHT22;1510;51.072;6.678;2022-12-07T11:26:19;6.10;99.90
3001;DHT22;1510;51.072;6.678;2022-12-07T11:29:09;6.10;99.90
3001;DHT22;1510;51.072;6.678;2022-12-07T11:31:47;6.20;99.90
3001;DHT22;1510;51.072;6.678;2022-12-07T11:34:26;6.40;99.90
3001;DHT22;1510;51.072;6.678;2022-12-07T11:36:57;6.50;99.90
3001;DHT22;1510;51.072;6.678;2022-12-07T11:39:28;6.70;99.90
3001;DHT22;1510;51.072;6.678;2022-12-07T11:42:05;6.80;99.90
3001;DHT22;1510;51.072;6.678;2022-12-07T11:44:36;6.90;99.90
3001;DHT22;1510;51.072;6.678;2022-12-07T11:47:10;6.90;99.90
3001;DHT22;1510;51.072;6.678;2022-12-07T11:49:42;6.90;99.90
3001;DHT22;1510;51.072;6.678;2022-12-07T11:52:20;6.90;99.90
3001;DHT22;1510;51.072;6.678;2022-12-07T11:54:49;6.80;99.90
3001;DHT22;1510;51.072;6.678;2022-12-07T11:57:23;7.10;99.90
3001;DHT22;1510;51.072;6.678;2022-12-07T11:59:56;7.30;99.90
3001;DHT22;1510;51.072;6.678;2022-12-07T12:02:28;7.50;99.90
3001;DHT22;1510;51.072;6.678;2022-12-07T12:05:02;7.60;99.90
3001;DHT22;1510;51.072;6.678;2022-12-07T12:07:32;7.50;99.90
3001;DHT22;1510;51.072;6.678;2022-12-07T12:10:02;7.70;99.90
3001;DHT22;1510;51.072;6.678;2022-12-07T12:12:50;7.70;99.90
3001;DHT22;1510;51.072;6.678;2022-12-07T12:15:29;7.70;99.90
3001;DHT22;1510;51.072;6.678;2022-12-07T12:18:21;7.90;99.90
3001;DHT22;1510;51.072;6.678;2022-12-07T12:20:57;7.80;99.90
3001;DHT22;1510;51.072;6.678;2022-12-07T12:23:30;7.50;99.90
3001;DHT22;1510;51.072;6.678;2022-12-07T12:26:02;7.20;99.90
3001;DHT22;1510;51.072;6.678;2022-12-07T12:28:35;7.10;99.90
3001;DHT22;1510;51.072;6.678;2022-12-07T12:31:07;7.10;99.90
3001;DHT22;1510;51.072;6.678;2022-12-07T12:33:43;7.00;99.90
3001;DHT22;1510;51.072;6.678;2022-12-07T12:36:20;6.90;99.90
3001;DHT22;1510;51.072;6.678;2022-12-07T12:38:51;6.70;99.90
3001;DHT22;1510;51.072;6.678;2022-12-07T12:41:59;6.70;99.90
3001;DHT22;1510;51.072;6.678;2022-12-07T12:45:04;6.80;99.90
3001;DHT22;1510;51.072;6.678;2022-12-07T12:47:53;6.90;99.90
3001;DHT22;1510;51.072;6.678;2022-12-07T12:50:24;6.90;99.90
3001;DHT22;1510;51.072;6.678;2022-12-07T12:53:05;7.10;99.90
3001;DHT22;1510;51.072;6.678;2022-12-07T12:56:17;7.20;99.90
3001;DHT22;1510;51.072;6.678;2022-12-07T12:58:48;7.20;99.90
3001;DHT22;1510;51.072;6.678;2022-12-07T13:01:41;7.10;99.90
3001;DHT22;1510;51.072;6.678;2022-12-07T13:07:55;6.90;99.90
3001;DHT22;1510;51.072;6.678;2022-12-07T13:10:38;6.90;99.90
3001;DHT22;1510;51.072;6.678;2022-12-07T13:13:29;6.80;99.90
3001;DHT22;1510;51.072;6.678;2022-12-07T13:18:58;7.00;99.90
3001;DHT22;1510;51.072;6.678;2022-12-07T13:21:44;6.90;99.90
3001;DHT22;1510;51.072;6.678;2022-12-07T13:24:22;6.90;99.90
3001;DHT22;1510;51.072;6.678;2022-12-07T13:26:55;7.00;99.90
3001;DHT22;1510;51.072;6.678;2022-12-07T13:29:23;7.00;99.90
3001;DHT22;1510;51.072;6.678;2022-12-07T13:31:52;6.90;99.90
3001;DHT22;1510;51.072;6.678;2022-12-07T13:34:31;6.80;99.90
3001;DHT22;1510;51.072;6.678;2022-12-07T13:36:59;6.70;99.90
3001;DHT22;1510;51.072;6.678;2022-12-07T13:39:27;6.70;99.90
3001;DHT22;1510;51.072;6.678;2022-12-07T13:41:55;6.80;99.90
3001;DHT22;1510;51.072;6.678;2022-12-07T13:44:24;6.80;99.90
3001;DHT22;1510;51.072;6.678;2022-12-07T13:46:59;6.90;99.90
3001;DHT22;1510;51.072;6.678;2022-12-07T13:49:30;7.00;99.90
3001;DHT22;1510;51.072;6.678;2022-12-07T13:52:13;7.00;99.90
3001;DHT22;1510;51.072;6.678;2022-12-07T13:54:44;6.90;99.90
3001;DHT22;1510;51.072;6.678;2022-12-07T13:57:11;6.80;99.90
3001;DHT22;1510;51.072;6.678;2022-12-07T13:59:38;6.80;99.90
3001;DHT22;1510;51.072;6.678;2022-12-07T14:02:18;6.70;99.90
3001;DHT22;1510;51.072;6.678;2022-12-07T14:04:48;6.60;99.90
3001;DHT22;1510;51.072;6.678;2022-12-07T14:07:21;6.60;99.90
3001;DHT22;1510;51.072;6.678;2022-12-07T14:09:59;6.50;99.90
3001;DHT22;1510;51.072;6.678;2022-12-07T14:12:28;6.40;99.90
3001;DHT22;1510;51.072;6.678;2022-12-07T14:14:56;6.50;99.90
3001;DHT22;1510;51.072;6.678;2022-12-07T14:17:24;6.30;99.90
3001;DHT22;1510;51.072;6.678;2022-12-07T14:19:54;6.30;99.90
3001;DHT22;1510;51.072;6.678;2022-12-07T14:22:24;6.30;99.90
3001;DHT22;1510;51.072;6.678;2022-12-07T14:24:58;6.20;99.90
3001;DHT22;1510;51.072;6.678;2022-12-07T14:27:31;6.20;99.90
3001;DHT22;1510;51.072;6.678;2022-12-07T14:29:59;6.20;99.90
3001;DHT22;1510;51.072;6.678;2022-12-07T14:32:28;6.00;99.90
3001;DHT22;1510;51.072;6.678;2022-12-07T14:34:58;6.00;99.90
3001;DHT22;1510;51.072;6.678;2022-12-07T14:37:26;5.80;99.90
3001;DHT22;1510;51.072;6.678;2022-12-07T14:39:54;5.70;99.90
3001;DHT22;1510;51.072;6.678;2022-12-07T14:42:24;5.60;99.90
3001;DHT22;1510;51.072;6.678;2022-12-07T14:44:51;5.40;99.90
3001;DHT22;1510;51.072;6.678;2022-12-07T14:47:23;5.00;99.90
3001;DHT22;1510;51.072;6.678;2022-12-07T14:49:50;4.70;99.90
3001;DHT22;1510;51.072;6.678;2022-12-07T14:52:21;4.40;99.90
3001;DHT22;1510;51.072;6.678;2022-12-07T14:54:48;4.00;99.90
3001;DHT22;1510;51.072;6.678;2022-12-07T14:57:15;4.10;99.90
3001;DHT22;1510;51.072;6.678;2022-12-07T14:59:42;4.20;99.90
3001;DHT22;1510;51.072;6.678;2022-12-07T15:02:11;4.30;99.90
3001;DHT22;1510;51.072;6.678;2022-12-07T15:04:38;4.40;99.90
3001;DHT22;1510;51.072;6.678;2022-12-07T15:07:13;4.40;99.90
3001;DHT22;1510;51.072;6.678;2022-12-07T15:09:42;4.30;99.90
3001;DHT22;1510;51.072;6.678;2022-12-07T15:12:09;4.20;99.90
3001;DHT22;1510;51.072;6.678;2022-12-07T15:14:36;4.10;99.90
3001;DHT22;1510;51.072;6.678;2022-12-07T15:17:03;3.90;99.90
3001;DHT22;1510;51.072;6.678;2022-12-07T15:19:33;3.80;99.90
3001;DHT22;1510;51.072;6.678;2022-12-07T15:22:02;3.60;99.90
3001;DHT22;1510;51.072;6.678;2022-12-07T15:24:29;3.70;99.90
3001;DHT22;1510;51.072;6.678;2022-12-07T15:26:58;3.60;99.90
3001;DHT22;1510;51.072;6.678;2022-12-07T15:29:25;3.40;99.90
3001;DHT22;1510;51.072;6.678;2022-12-07T15:31:52;3.50;99.90
3001;DHT22;1510;51.072;6.678;2022-12-07T15:34:19;3.40;99.90
3001;DHT22;1510;51.072;6.678;2022-12-07T15:36:46;3.60;99.90
3001;DHT22;1510;51.072;6.678;2022-12-07T15:39:12;3.40;99.90
3001;DHT22;1510;51.072;6.678;2022-12-07T15:41:39;3.30;99.90
3001;DHT22;1510;51.072;6.678;2022-12-07T15:44:08;3.20;99.90
3001;DHT22;1510;51.072;6.678;2022-12-07T15:46:54;3.30;99.90
3001;DHT22;1510;51.072;6.678;2022-12-07T15:49:20;3.20;99.90
3001;DHT22;1510;51.072;6.678;2022-12-07T15:51:47;3.20;99.90
3001;DHT22;1510;51.072;6.678;2022-12-07T15:54:20;3.20;99.90
3001;DHT22;1510;51.072;6.678;2022-12-07T15:56:47;3.30;99.90
3001;DHT22;1510;51.072;6.678;2022-12-07T15:59:16;3.40;99.90
3001;DHT22;1510;51.072;6.678;2022-12-07T16:01:43;3.40;99.90
3001;DHT22;1510;51.072;6.678;2022-12-07T16:04:10;3.40;99.90
3001;DHT22;1510;51.072;6.678;2022-12-07T16:06:36;3.50;99.90
3001;DHT22;1510;51.072;6.678;2022-12-07T16:09:04;3.50;99.90
3001;DHT22;1510;51.072;6.678;2022-12-07T16:11:32;3.70;99.90
3001;DHT22;1510;51.072;6.678;2022-12-07T16:13:59;3.80;99.90
3001;DHT22;1510;51.072;6.678;2022-12-07T16:16:27;3.80;99.90
3001;DHT22;1510;51.072;6.678;2022-12-07T16:18:54;3.90;99.90
3001;DHT22;1510;51.072;6.678;2022-12-07T16:21:21;3.90;99.90
3001;DHT22;1510;51.072;6.678;2022-12-07T16:23:48;4.00;99.90
3001;DHT22;1510;51.072;6.678;2022-12-07T16:26:17;4.10;99.90
3001;DHT22;1510;51.072;6.678;2022-12-07T16:28:44;4.10;99.90
3001;DHT22;1510;51.072;6.678;2022-12-07T16:31:14;4.00;99.90
3001;DHT22;1510;51.072;6.678;2022-12-07T16:33:43;4.10;99.90
3001;DHT22;1510;51.072;6.678;2022-12-07T16:36:14;4.10;99.90
3001;DHT22;1510;51.072;6.678;2022-12-07T16:38:42;4.10;99.90
3001;DHT22;1510;51.072;6.678;2022-12-07T16:41:10;4.20;99.90
3001;DHT22;1510;51.072;6.678;2022-12-07T16:43:37;4.20;99.90
3001;DHT22;1510;51.072;6.678;2022-12-07T16:46:04;4.30;99.90
3001;DHT22;1510;51.072;6.678;2022-12-07T16:48:33;4.30;99.90